Time;durP1;ratioP1;P1;durP2;ratioP2;P2;SDS_P1;SDS_P2;PMS_P1;PMS_P2;Temp;Humidity;BMP_temperature;BMP_pressure;BME280_temperature;BME280_humidity;BME280_pressure;Samples;Min_cycle;Max_cycle;Signal;HPM_P1;HPM_P2
2022/05/20 00:01:15;;;;;;;9.30;5.80;;;16.70;99.90;;;;;;4956422;28;20441;-84
2022/05/20 00:03:41;;;;;;;7.13;4.97;;;;;;;;;;4962028;28;20435;-85
2022/05/20 00:06:07;;;;;;;28.37;6.70;;;;;;;;;;4950135;29;20955;-86
2022/05/20 00:08:38;;;;;;;10.50;5.27;;;16.70;99.90;;;;;;4942375;28;20447;-87
2022/05/20 00:11:09;;;;;;;9.40;5.10;;;16.50;99.90;;;;;;4940120;28;20483;-86
2022/05/20 00:13:39;;;;;;;5.10;4.60;;;18.80;99.90;;;;;;4953676;28;20435;-85
2022/05/20 00:16:05;;;;;;;8.63;5.87;;;16.40;99.90;;;;;;4950318;29;20566;-85
2022/05/20 00:18:33;;;;;;;8.40;5.43;;;16.80;99.90;;;;;;4951853;28;20594;-86
2022/05/20 00:20:59;;;;;;;7.13;5.70;;;;;;;;;;4954670;29;20226;-86
2022/05/20 00:23:28;;;;;;;8.87;6.07;;;;;;;;;;4961552;28;20440;-86
2022/05/20 00:26:11;;;;;;;9.23;5.50;;;16.80;99.90;;;;;;4953880;29;20433;-85
2022/05/20 00:28:46;;;;;;;8.43;5.10;;;17.00;99.90;;;;;;4952520;29;20441;-85
2022/05/20 00:31:16;;;;;;;13.53;6.63;;;17.00;99.90;;;;;;4962196;28;20591;-86
2022/05/20 00:33:48;;;;;;;6.20;5.60;;;16.90;99.90;;;;;;4972628;28;20444;-87
2022/05/20 00:36:19;;;;;;;8.80;7.10;;;16.90;99.90;;;;;;4949522;29;20437;-85
2022/05/20 00:38:45;;;;;;;14.60;7.80;;;;;;;;;;4944689;29;20505;-86
2022/05/20 00:41:27;;;;;;;10.70;7.73;;;16.80;99.90;;;;;;4950792;28;20460;-85
2022/05/20 00:43:59;;;;;;;11.00;6.30;;;16.70;99.90;;;;;;4953269;29;20441;-87
2022/05/20 00:46:34;;;;;;;6.67;5.97;;;16.70;99.90;;;;;;4950601;29;20444;-85
2022/05/20 00:49:44;;;;;;;14.83;7.30;;;17.00;99.90;;;;;;4942848;28;20442;-85
2022/05/20 00:52:21;;;;;;;7.87;6.37;;;16.50;99.90;;;;;;4933120;28;20447;-86
2022/05/20 00:54:58;;;;;;;10.20;6.73;;;16.50;99.90;;;;;;4939778;28;20429;-85
2022/05/20 00:57:30;;;;;;;9.63;6.93;;;16.40;99.90;;;;;;4941250;28;20463;-84
2022/05/20 01:00:18;;;;;;;9.33;6.70;;;16.50;99.90;;;;;;4957568;28;20995;-86
2022/05/20 01:02:45;;;;;;;18.87;7.17;;;;;;;;;;4942040;29;20449;-84
2022/05/20 01:05:30;;;;;;;9.90;6.77;;;16.20;99.90;;;;;;4942327;29;20440;-84
2022/05/20 01:08:06;;;;;;;11.53;7.07;;;16.40;99.90;;;;;;4939515;28;20471;-86
2022/05/20 01:11:02;;;;;;;9.87;6.93;;;16.20;99.90;;;;;;4944729;28;20544;-87
2022/05/20 01:13:49;;;;;;;;;;;;;;;;;;;;;
2022/05/20 01:16:26;;;;;;;16.47;7.70;;;16.30;99.90;;;;;;4940493;29;20893;-86
2022/05/20 01:19:27;;;;;;;14.37;7.27;;;16.30;99.90;;;;;;4948270;29;20500;-84
2022/05/20 01:22:13;;;;;;;15.63;7.83;;;16.30;99.90;;;;;;4941108;28;20439;-84
2022/05/20 01:24:39;;;;;;;8.30;7.40;;;;;;;;;;4941956;28;20444;-85
2022/05/20 01:27:10;;;;;;;10.37;7.23;;;16.30;99.90;;;;;;4941166;28;20444;-85
2022/05/20 01:29:36;;;;;;;10.17;7.30;;;;;;;;;;4946000;28;21039;-85
2022/05/20 01:32:25;;;;;;;14.83;7.90;;;16.50;99.90;;;;;;4960124;28;20424;-85
2022/05/20 01:34:57;;;;;;;12.07;7.63;;;16.90;99.90;;;;;;4956245;28;20453;-87
2022/05/20 01:37:43;;;;;;;10.10;7.53;;;18.30;99.90;;;;;;4946317;29;20446;-85
2022/05/20 01:40:22;;;;;;;10.97;7.40;;;16.60;99.90;;;;;;4943615;28;20468;-88
2022/05/20 01:43:22;;;;;;;13.30;8.27;;;16.20;99.90;;;;;;4945528;29;20448;-87
2022/05/20 01:46:29;;;;;;;;;;;;;;;;;;;;;
2022/05/20 01:49:22;;;;;;;11.73;7.60;;;16.50;99.90;;;;;;4954400;29;20532;-87
2022/05/20 01:51:58;;;;;;;10.47;8.00;;;16.50;99.90;;;;;;4946753;29;20469;-87
2022/05/20 01:55:09;;;;;;;10.60;7.27;;;16.50;99.90;;;;;;4946471;29;20539;-86
2022/05/20 01:58:01;;;;;;;23.53;7.93;;;16.60;99.90;;;;;;4858051;29;20470;-85
2022/05/20 02:00:42;;;;;;;10.30;8.10;;;16.50;99.90;;;;;;4939951;29;20460;-87
2022/05/20 02:04:00;;;;;;;11.43;8.23;;;16.40;99.90;;;;;;4940179;28;20569;-86
2022/05/20 02:07:27;;;;;;;14.20;9.27;;;16.40;99.90;;;;;;4940294;29;20445;-84
2022/05/20 02:10:16;;;;;;;11.47;8.63;;;16.20;99.90;;;;;;4935507;28;20499;-85
2022/05/20 02:13:09;;;;;;;;;;;;;;;;;;;;;
2022/05/20 02:16:24;;;;;;;10.53;8.13;;;14.70;99.90;;;;;;4941509;29;20438;-86
2022/05/20 02:19:13;;;;;;;14.67;8.87;;;16.10;99.90;;;;;;4941058;29;20514;-87
2022/05/20 02:21:51;;;;;;;12.80;8.70;;;16.30;99.90;;;;;;4935965;28;20587;-86
2022/05/20 02:24:33;;;;;;;13.20;9.20;;;16.30;99.90;;;;;;4942161;29;20432;-85
2022/05/20 02:27:42;;;;;;;10.33;8.53;;;16.10;99.90;;;;;;4947036;29;20432;-84
2022/05/20 02:33:26;;;;;;;11.60;8.47;;;16.20;99.90;;;;;;4938750;29;21746;-84
2022/05/20 02:35:59;;;;;;;12.23;9.20;;;;;;;;;;4902795;29;20873;-86
2022/05/20 02:38:38;;;;;;;11.77;9.40;;;16.30;99.90;;;;;;4938440;28;20432;-87
2022/05/20 02:41:37;;;;;;;11.33;9.07;;;16.30;99.90;;;;;;4940742;28;20559;-87
2022/05/20 02:44:11;;;;;;;10.43;8.17;;;16.90;99.90;;;;;;4946945;29;20483;-86
2022/05/20 02:46:41;;;;;;;9.93;8.43;;;16.80;99.90;;;;;;4938467;28;20436;-85
2022/05/20 02:49:49;;;;;;;11.77;8.53;;;16.10;99.90;;;;;;4945770;28;20822;-88
2022/05/20 02:52:19;;;;;;;12.97;9.60;;;;;;;;;;4943581;28;20921;-87
2022/05/20 02:55:35;;;;;;;10.60;8.60;;;16.10;99.90;;;;;;4942123;29;20766;-87
2022/05/20 03:06:35;;;;;;;10.23;9.13;;;15.90;99.90;;;;;;4945341;29;20517;-86
2022/05/20 03:09:01;;;;;;;14.73;9.70;;;;;;;;;;4962531;23;20488;-87
2022/05/20 03:11:27;;;;;;;12.97;9.17;;;15.90;99.90;;;;;;4937368;29;20817;-86
2022/05/20 03:13:53;;;;;;;14.53;9.23;;;15.90;99.90;;;;;;4935480;29;20468;-87
2022/05/20 03:16:18;;;;;;;14.87;10.63;;;15.90;99.90;;;;;;4939067;29;20813;-86
2022/05/20 03:18:44;;;;;;;18.10;10.10;;;15.90;99.90;;;;;;4936467;29;20185;-86
2022/05/20 03:21:09;;;;;;;16.83;11.00;;;15.90;99.90;;;;;;4940403;29;20203;-86
2022/05/20 03:23:35;;;;;;;13.43;9.60;;;16.00;99.90;;;;;;4935439;29;20232;-86
2022/05/20 03:26:03;;;;;;;17.47;11.00;;;15.90;99.90;;;;;;4934784;29;20638;-88
2022/05/20 03:28:31;;;;;;;11.47;9.00;;;15.90;99.90;;;;;;4939354;29;20185;-88
2022/05/20 03:31:07;;;;;;;16.50;10.90;;;15.80;99.90;;;;;;4936551;29;20560;-90
2022/05/20 03:33:34;;;;;;;13.67;10.00;;;15.80;99.90;;;;;;4937507;29;20467;-87
2022/05/20 03:36:00;;;;;;;16.37;11.40;;;15.80;99.90;;;;;;4932145;29;20441;-88
2022/05/20 03:38:25;;;;;;;16.70;10.87;;;15.80;99.90;;;;;;4936700;29;20435;-89
2022/05/20 03:40:51;;;;;;;18.77;11.70;;;15.80;99.90;;;;;;4937567;29;20192;-88
2022/05/20 03:43:17;;;;;;;19.00;11.27;;;15.80;99.90;;;;;;4936457;29;20217;-87
2022/05/20 03:45:42;;;;;;;18.90;11.00;;;15.90;99.90;;;;;;4939633;29;20208;-89
2022/05/20 03:48:08;;;;;;;13.50;10.00;;;16.00;99.90;;;;;;4938426;29;20684;-88
2022/05/20 03:50:35;;;;;;;16.43;11.20;;;16.00;99.90;;;;;;4939549;29;20212;-88
2022/05/20 03:53:00;;;;;;;13.13;10.57;;;15.90;99.90;;;;;;4937587;29;20464;-87
2022/05/20 03:55:27;;;;;;;15.60;11.50;;;15.80;99.90;;;;;;4938150;29;20436;-87
2022/05/20 03:57:52;;;;;;;21.80;10.97;;;15.80;99.90;;;;;;4937817;29;20208;-88
2022/05/20 04:00:19;;;;;;;16.20;10.60;;;16.00;99.90;;;;;;4939760;29;20453;-88
2022/05/20 04:02:44;;;;;;;14.87;11.03;;;16.10;99.90;;;;;;4939249;29;20195;-87
2022/05/20 04:05:10;;;;;;;17.53;11.50;;;16.20;99.90;;;;;;4946772;29;20918;-89
2022/05/20 04:07:38;;;;;;;18.17;11.40;;;16.30;99.90;;;;;;4945474;29;20201;-87
2022/05/20 04:10:04;;;;;;;11.03;9.93;;;16.50;99.90;;;;;;4939430;29;20312;-88
2022/05/20 04:12:38;;;;;;;18.20;11.93;;;16.70;99.90;;;;;;4953348;29;20440;-89
2022/05/20 04:15:07;;;;;;;18.83;10.10;;;16.70;99.90;;;;;;4960617;28;20730;-89
2022/05/20 04:17:32;;;;;;;12.40;10.20;;;16.70;99.90;;;;;;4951616;28;20520;-88
2022/05/20 04:19:59;;;;;;;13.73;10.07;;;;;;;;;;4942738;29;20459;-89
2022/05/20 04:22:31;;;;;;;20.47;9.80;;;16.60;99.90;;;;;;4948826;29;20184;-89
2022/05/20 04:24:56;;;;;;;13.03;10.20;;;16.60;99.90;;;;;;4962403;29;20424;-89
2022/05/20 04:27:22;;;;;;;13.47;10.77;;;16.80;99.90;;;;;;4945390;28;20461;-90
2022/05/20 04:29:48;;;;;;;16.47;10.00;;;16.80;99.90;;;;;;4943005;29;20228;-89
2022/05/20 04:32:14;;;;;;;12.30;9.83;;;16.90;99.90;;;;;;4939216;29;20441;-89
2022/05/20 04:34:39;;;;;;;16.43;10.80;;;17.00;99.90;;;;;;4940845;29;20187;-87
2022/05/20 04:37:05;;;;;;;13.60;11.00;;;17.00;99.90;;;;;;4940697;29;20618;-88
2022/05/20 04:39:31;;;;;;;13.87;10.20;;;16.80;99.90;;;;;;4940930;29;20177;-89
2022/05/20 04:47:28;;;;;;;13.47;10.90;;;17.00;99.90;;;;;;4989859;23;20591;-87
2022/05/20 04:49:54;;;;;;;11.50;9.80;;;19.60;99.90;;;;;;4966922;29;20445;-86
2022/05/20 04:52:20;;;;;;;18.90;12.77;;;;;;;;;;4949565;29;20506;-85
2022/05/20 04:54:50;;;;;;;15.53;12.20;;;;;;;;;;4949357;29;20191;-88
2022/05/20 04:57:23;;;;;;;15.50;12.50;;;17.80;99.90;;;;;;4951884;29;20508;-87
2022/05/20 04:59:49;;;;;;;14.90;11.00;;;;;;;;;;4950445;29;20444;-88
2022/05/20 05:02:21;;;;;;;13.70;11.67;;;;;;;;;;4948710;29;20472;-88
2022/05/20 05:04:47;;;;;;;13.43;10.70;;;;;;;;;;4951948;29;20393;-88
2022/05/20 05:07:15;;;;;;;11.53;9.20;;;;;;;;;;4951773;29;20433;-88
2022/05/20 05:09:45;;;;;;;14.67;9.57;;;;;;;;;;4937659;29;20468;-87
2022/05/20 05:12:12;;;;;;;13.37;9.47;;;23.20;99.90;;;;;;4936301;29;20471;-87
2022/05/20 05:14:47;;;;;;;10.00;9.00;;;23.90;99.90;;;;;;4933735;29;21032;-87
2022/05/20 05:17:15;;;;;;;16.30;11.30;;;22.60;99.90;;;;;;4935170;29;20492;-87
2022/05/20 05:19:44;;;;;;;13.70;10.17;;;22.10;99.90;;;;;;4935652;29;20444;-87
2022/05/20 05:22:11;;;;;;;12.97;10.23;;;21.60;99.90;;;;;;4930076;29;20880;-86
2022/05/20 05:24:38;;;;;;;15.50;9.27;;;21.30;99.90;;;;;;4927659;29;20472;-87
2022/05/20 05:27:05;;;;;;;14.40;9.63;;;21.60;99.90;;;;;;4928260;29;20889;-84
2022/05/20 05:29:30;;;;;;;13.47;8.80;;;21.70;99.90;;;;;;4939475;29;20457;-88
2022/05/20 05:31:58;;;;;;;11.10;8.80;;;22.10;99.90;;;;;;4938564;29;21065;-86
2022/05/20 05:34:25;;;;;;;10.50;9.50;;;22.80;99.90;;;;;;4947598;29;20417;-86
2022/05/20 05:36:52;;;;;;;11.63;7.97;;;23.10;99.90;;;;;;4936930;29;20511;-88
2022/05/20 05:39:17;;;;;;;8.40;7.50;;;25.50;99.90;;;;;;4946551;29;20428;-87
2022/05/20 05:41:45;;;;;;;9.20;7.97;;;26.70;99.90;;;;;;4944917;29;20452;-89
2022/05/20 05:44:10;;;;;;;10.30;6.67;;;29.10;99.90;;;;;;4943730;29;20183;-89
2022/05/20 05:46:36;;;;;;;9.17;7.07;;;29.20;99.90;;;;;;4941941;29;20545;-86
2022/05/20 05:49:03;;;;;;;13.07;8.03;;;30.90;99.90;;;;;;4945348;29;20189;-89
2022/05/20 05:51:30;;;;;;;9.77;7.40;;;31.80;99.90;;;;;;4943843;29;20683;-85
2022/05/20 05:53:56;;;;;;;8.63;6.93;;;32.50;99.90;;;;;;4932006;29;20421;-88
2022/05/20 05:56:22;;;;;;;9.37;7.43;;;33.40;99.90;;;;;;4926714;29;20442;-86
2022/05/20 05:58:48;;;;;;;8.10;7.00;;;;;;;;;;4934701;29;20792;-87
2022/05/20 06:01:15;;;;;;;9.87;7.47;;;;;;;;;;4945588;29;20591;-89
2022/05/20 06:03:42;;;;;;;10.83;8.73;;;;;;;;;;4945376;29;20431;-87
2022/05/20 06:06:08;;;;;;;9.00;7.27;;;;;;;;;;4944606;29;20923;-87
2022/05/20 06:08:34;;;;;;;12.03;7.80;;;;;;;;;;4945418;29;20432;-87
2022/05/20 06:11:00;;;;;;;13.57;8.47;;;;;;;;;;4944852;29;20456;-88
2022/05/20 06:13:29;;;;;;;11.20;8.97;;;33.90;93.30;;;;;;4943647;29;20410;-87
2022/05/20 06:15:56;;;;;;;11.40;9.20;;;;;;;;;;4943352;29;20924;-87
2022/05/20 06:18:22;;;;;;;10.13;8.90;;;30.30;98.50;;;;;;4945154;29;20915;-88
2022/05/20 06:20:48;;;;;;;11.30;8.70;;;29.50;99.90;;;;;;4945605;29;20430;-87
2022/05/20 06:23:14;;;;;;;10.10;9.00;;;30.40;99.90;;;;;;4948244;29;20840;-87
2022/05/20 06:25:41;;;;;;;12.60;8.47;;;30.20;99.90;;;;;;4949720;29;20413;-86
2022/05/20 06:28:10;;;;;;;12.37;8.30;;;29.90;99.90;;;;;;4946411;29;20446;-88
2022/05/20 06:30:36;;;;;;;14.43;9.60;;;30.80;99.90;;;;;;4945795;29;20870;-89
2022/05/20 06:33:02;;;;;;;10.33;9.20;;;33.70;99.20;;;;;;4944095;29;20474;-87
2022/05/20 06:40:59;;;;;;;9.63;8.63;;;33.00;98.70;;;;;;4948585;29;20496;-89
2022/05/20 06:43:25;;;;;;;9.87;8.00;;;;;;;;;;4946007;29;20420;-89
2022/05/20 06:45:55;;;;;;;12.60;8.97;;;37.30;91.20;;;;;;4946512;29;20427;-87
2022/05/20 06:48:21;;;;;;;11.97;9.60;;;;;;;;;;4945753;29;20448;-89
2022/05/20 06:50:47;;;;;;;13.53;9.40;;;;;;;;;;4946295;29;20903;-90
2022/05/20 06:53:13;;;;;;;10.50;8.63;;;;;;;;;;4945681;29;20430;-88
2022/05/20 06:55:39;;;;;;;10.07;9.10;;;;;;;;;;4945775;29;20415;-89
2022/05/20 06:58:05;;;;;;;11.63;9.60;;;;;;;;;;4945168;29;20475;-88
2022/05/20 07:00:31;;;;;;;10.80;9.70;;;;;;;;;;4945444;29;20427;-88
2022/05/20 07:02:57;;;;;;;10.03;8.97;;;;;;;;;;4944196;29;20444;-90
2022/05/20 07:05:23;;;;;;;12.83;10.33;;;;;;;;;;4944604;29;20480;-88
2022/05/20 07:07:49;;;;;;;11.63;10.60;;;;;;;;;;4944391;29;20970;-88
2022/05/20 07:10:16;;;;;;;14.67;12.10;;;38.50;76.00;;;;;;4944284;29;21047;-87
2022/05/20 07:12:42;;;;;;;12.43;10.80;;;36.50;82.70;;;;;;4944904;29;20404;-89
2022/05/20 07:15:08;;;;;;;20.83;11.00;;;36.40;83.40;;;;;;4945974;29;20419;-87
2022/05/20 07:17:36;;;;;;;13.50;11.00;;;38.40;78.00;;;;;;4944345;29;20439;-90
2022/05/20 07:20:02;;;;;;;12.07;10.80;;;;;;;;;;4944305;29;20447;-87
2022/05/20 07:22:28;;;;;;;11.97;10.80;;;;;;;;;;4943925;29;20409;-88
2022/05/20 07:24:55;;;;;;;11.47;10.40;;;;;;;;;;4944215;29;20996;-87
2022/05/20 07:27:21;;;;;;;11.70;10.70;;;;;;;;;;4944346;29;20647;-88
2022/05/20 07:29:47;;;;;;;10.73;9.63;;;;;;;;;;4943348;29;20460;-88
2022/05/20 07:32:13;;;;;;;12.00;10.90;;;;;;;;;;4945001;29;20503;-88
2022/05/20 07:34:39;;;;;;;12.73;11.43;;;;;;;;;;4948425;29;20459;-86
2022/05/20 07:37:05;;;;;;;12.67;11.47;;;;;;;;;;4947969;29;20440;-90
2022/05/20 07:39:32;;;;;;;12.80;11.50;;;39.20;67.60;;;;;;4947839;29;20188;-89
2022/05/20 07:41:58;;;;;;;12.70;11.80;;;;;;;;;;4948677;29;20412;-89
2022/05/20 07:44:23;;;;;;;13.07;11.83;;;;;;;;;;4947003;29;20419;-89
2022/05/20 07:46:49;;;;;;;13.30;12.07;;;38.30;69.50;;;;;;4947419;29;20466;-88
2022/05/20 07:49:15;;;;;;;18.80;12.93;;;;;;;;;;4946976;29;20515;-86
2022/05/20 07:51:45;;;;;;;14.27;12.37;;;37.30;71.90;;;;;;4946754;29;20184;-87
2022/05/20 07:54:15;;;;;;;14.10;12.87;;;36.90;74.30;;;;;;4947525;29;20495;-88
2022/05/20 07:56:49;;;;;;;16.13;12.20;;;36.90;74.80;;;;;;4948111;29;20440;-89
2022/05/20 07:59:25;;;;;;;12.13;11.10;;;36.90;72.80;;;;;;4947984;29;20418;-90
2022/05/20 08:01:53;;;;;;;18.43;11.97;;;36.70;77.20;;;;;;4947281;29;20421;-88
2022/05/20 08:07:09;;;;;;;13.30;11.90;;;36.70;74.40;;;;;;4948895;29;20511;-88
2022/05/20 08:09:35;;;;;;;13.33;11.80;;;;;;;;;;4947077;29;20459;-88
2022/05/20 08:12:01;;;;;;;13.10;11.80;;;;;;;;;;4947801;29;20429;-89
2022/05/20 08:14:28;;;;;;;12.47;11.17;;;;;;;;;;4949629;29;20420;-88
2022/05/20 08:16:56;;;;;;;14.07;12.57;;;40.60;67.70;;;;;;4949116;29;20448;-89
2022/05/20 08:19:22;;;;;;;13.60;12.30;;;;;;;;;;4947919;29;20535;-90
2022/05/20 08:21:48;;;;;;;14.30;13.13;;;;;;;;;;4948826;29;20515;-89
2022/05/20 08:24:14;;;;;;;15.47;13.80;;;;;;;;;;4949586;29;20248;-87
2022/05/20 08:26:40;;;;;;;15.90;12.60;;;;;;;;;;4947271;29;20531;-87
2022/05/20 08:29:06;;;;;;;16.70;15.50;;;;;;;;;;4945856;29;20902;-86
2022/05/20 08:31:33;;;;;;;17.33;15.77;;;;;;;;;;4947291;29;20409;-86
2022/05/20 08:34:00;;;;;;;17.33;15.77;;;;;;;;;;4950435;28;20432;-87
2022/05/20 08:36:26;;;;;;;17.07;15.30;;;;;;;;;;4949589;29;20429;-90
2022/05/20 08:38:52;;;;;;;17.73;16.37;;;;;;;;;;4950186;29;20432;-89
2022/05/20 08:41:33;;;;;;;19.30;17.77;;;45.80;63.10;;;;;;4949890;29;20412;-86
2022/05/20 08:44:00;;;;;;;19.30;17.70;;;44.10;49.10;;;;;;4950359;29;20401;-89
2022/05/20 08:46:26;;;;;;;21.00;19.60;;;;;;;;;;4950051;29;20476;-86
2022/05/20 08:48:55;;;;;;;19.03;17.63;;;42.60;52.10;;;;;;4949694;29;20421;-88
2022/05/20 08:51:22;;;;;;;18.00;16.77;;;42.60;52.70;;;;;;4949870;29;20523;-89
2022/05/20 08:53:49;;;;;;;18.50;17.20;;;42.60;47.70;;;;;;4950792;29;20835;-89
2022/05/20 08:56:19;;;;;;;19.20;17.47;;;42.50;48.60;;;;;;4949411;29;20417;-87
2022/05/20 08:58:51;;;;;;;20.07;18.53;;;43.10;49.50;;;;;;4949708;29;20413;-89
2022/05/20 09:01:31;;;;;;;22.00;20.00;;;43.00;49.10;;;;;;4949789;29;20401;-87
2022/05/20 09:03:57;;;;;;;21.83;19.90;;;;;;;;;;4949390;29;20432;-88
2022/05/20 09:06:24;;;;;;;22.63;21.13;;;42.90;49.70;;;;;;4949122;29;20440;-90
2022/05/20 09:09:14;;;;;;;19.57;18.27;;;42.40;51.80;;;;;;4945062;29;20519;-88
2022/05/20 09:11:44;;;;;;;18.00;16.60;;;40.70;50.90;;;;;;4946037;28;20440;-87
2022/05/20 09:17:09;;;;;;;17.93;16.70;;;42.00;50.60;;;;;;4947756;29;20444;-88
2022/05/20 09:19:35;;;;;;;17.13;15.73;;;42.20;50.70;;;;;;4946255;29;20412;-87
2022/05/20 09:22:29;;;;;;;19.47;17.40;;;43.00;56.90;;;;;;4946318;29;20412;-86
2022/05/20 09:24:55;;;;;;;19.43;18.07;;;;;;;;;;4946695;29;20472;-87
2022/05/20 09:27:33;;;;;;;18.40;17.30;;;41.20;49.90;;;;;;4947079;29;20461;-88
2022/05/20 09:30:08;;;;;;;18.97;17.50;;;40.50;50.60;;;;;;4947561;29;20479;-88
2022/05/20 09:32:45;;;;;;;17.93;16.50;;;39.80;50.90;;;;;;4947019;29;20420;-88
2022/05/20 09:35:11;;;;;;;21.10;19.20;;;;;;;;;;4948079;29;20428;-88
2022/05/20 09:37:38;;;;;;;16.70;15.57;;;;;;;;;;4948457;29;20440;-89
2022/05/20 09:40:34;;;;;;;17.93;16.73;;;40.40;45.20;;;;;;4946730;29;20492;-90
2022/05/20 09:43:29;;;;;;;16.90;16.03;;;40.30;45.50;;;;;;4947572;29;20436;-89
2022/05/20 09:45:57;;;;;;;17.77;16.20;;;37.20;51.50;;;;;;4947011;29;21194;-89
2022/05/20 09:48:45;;;;;;;15.33;14.33;;;37.10;52.10;;;;;;4946712;29;20456;-89
2022/05/20 09:51:20;;;;;;;16.60;15.60;;;37.90;56.00;;;;;;4946562;29;20559;-86
2022/05/20 09:54:23;;;;;;;16.73;15.73;;;39.30;51.50;;;;;;4946241;29;21074;-87
2022/05/20 09:57:12;;;;;;;16.90;15.27;;;41.10;50.40;;;;;;4945870;28;20487;-86
2022/05/20 10:00:11;;;;;;;17.43;16.30;;;42.20;51.60;;;;;;4947169;29;20417;-87
2022/05/20 10:02:45;;;;;;;17.93;16.50;;;40.10;48.80;;;;;;4945936;29;20507;-91
2022/05/20 10:05:23;;;;;;;18.07;16.63;;;40.10;49.70;;;;;;4946857;29;20424;-86
2022/05/20 10:08:17;;;;;;;17.67;16.23;;;40.30;48.40;;;;;;4946229;29;20432;-87
2022/05/20 10:10:43;;;;;;;17.23;16.03;;;39.30;48.90;;;;;;4939994;29;20482;-88
2022/05/20 10:13:23;;;;;;;17.30;16.10;;;38.60;50.20;;;;;;4945740;29;20497;-90
2022/05/20 10:15:51;;;;;;;17.87;16.63;;;38.80;51.00;;;;;;4944587;29;20188;-89
2022/05/20 10:18:32;;;;;;;18.57;17.17;;;39.40;49.60;;;;;;4944548;29;20468;-89
2022/05/20 10:21:17;;;;;;;17.70;16.47;;;39.30;50.30;;;;;;4944010;29;21126;-89
2022/05/20 10:24:10;;;;;;;18.47;17.13;;;38.10;50.00;;;;;;4943965;29;20408;-89
2022/05/20 10:26:48;;;;;;;16.30;15.17;;;39.10;49.50;;;;;;4944547;29;20444;-88
2022/05/20 10:32:35;;;;;;;15.63;14.57;;;37.50;49.20;;;;;;4946732;29;20413;-89
2022/05/20 10:35:05;;;;;;;14.00;12.77;;;34.90;52.50;;;;;;4945964;29;20431;-89
2022/05/20 10:38:05;;;;;;;14.53;13.23;;;33.70;57.20;;;;;;4945046;29;20435;-88
2022/05/20 10:40:46;;;;;;;12.17;11.07;;;32.20;57.20;;;;;;4941432;29;20588;-88
2022/05/20 10:49:23;;;;;;;11.90;10.70;;;31.50;59.80;;;;;;4938234;28;20617;-86
2022/05/20 10:52:36;;;;;;;10.73;9.90;;;31.80;64.50;;;;;;4930758;28;20752;-84
2022/05/20 10:55:07;;;;;;;10.47;9.50;;;31.70;67.60;;;;;;4877765;29;20536;-87
2022/05/20 10:57:41;;;;;;;16.23;10.10;;;31.80;68.50;;;;;;4917298;28;20445;-85
2022/05/20 11:00:12;;;;;;;20.60;9.77;;;31.10;63.80;;;;;;4932356;28;20459;-86
2022/05/20 11:03:13;;;;;;;10.20;9.27;;;30.70;64.60;;;;;;4940028;28;20440;-85
2022/05/20 11:05:50;;;;;;;13.00;9.23;;;30.70;67.30;;;;;;4945426;28;20527;-86
2022/05/20 11:08:27;;;;;;;10.30;9.20;;;31.10;70.90;;;;;;4947951;28;20449;-85
2022/05/20 11:11:08;;;;;;;8.83;7.60;;;31.30;67.70;;;;;;4947129;28;20495;-86
2022/05/20 11:13:33;;;;;;;12.70;10.27;;;31.60;67.60;;;;;;4945523;28;20438;-86
2022/05/20 11:16:19;;;;;;;14.13;9.50;;;31.60;63.90;;;;;;4947635;28;20434;-87
2022/05/20 11:19:09;;;;;;;13.33;9.77;;;31.60;61.40;;;;;;4943565;28;20257;-86
2022/05/20 11:21:59;;;;;;;10.40;7.13;;;31.50;63.90;;;;;;4948242;28;20476;-85
2022/05/20 11:24:52;;;;;;;9.23;8.37;;;31.70;62.10;;;;;;4934669;28;20446;-85
2022/05/20 11:27:20;;;;;;;9.77;8.73;;;32.20;64.10;;;;;;4946932;28;20439;-84
2022/05/20 11:30:05;;;;;;;9.53;8.37;;;32.90;63.10;;;;;;4943973;28;20577;-86
2022/05/20 11:33:09;;;;;;;8.83;8.10;;;33.00;63.50;;;;;;4938773;28;20457;-85
2022/05/20 11:35:43;;;;;;;11.40;8.90;;;33.00;61.60;;;;;;4945186;28;20484;-86
2022/05/20 11:38:28;;;;;;;10.10;8.37;;;32.90;59.80;;;;;;4937867;28;20438;-86
2022/05/20 11:41:18;;;;;;;10.97;9.80;;;32.90;60.90;;;;;;4935034;28;20461;-86
2022/05/20 11:44:06;;;;;;;14.00;12.63;;;33.20;59.80;;;;;;4948272;28;20442;-85
2022/05/20 11:46:47;;;;;;;11.67;9.20;;;33.00;58.30;;;;;;4919916;28;20472;-86
2022/05/20 11:49:58;;;;;;;11.53;10.23;;;32.60;58.40;;;;;;4947328;28;20468;-85
2022/05/20 11:52:38;;;;;;;9.47;8.77;;;32.80;57.30;;;;;;4948017;28;20855;-85
2022/05/20 11:55:16;;;;;;;15.60;9.00;;;32.70;57.70;;;;;;4961614;28;20423;-86
2022/05/20 11:58:17;;;;;;;12.40;8.67;;;32.20;59.90;;;;;;4956081;28;20460;-87
2022/05/20 12:00:43;;;;;;;9.27;8.47;;;31.70;58.90;;;;;;4948698;28;20498;-87
2022/05/20 12:03:16;;;;;;;10.80;9.70;;;31.60;59.40;;;;;;4946841;28;20468;-88
2022/05/20 12:05:45;;;;;;;10.80;10.00;;;31.50;59.50;;;;;;4953617;28;20458;-84
2022/05/20 12:08:44;;;;;;;13.33;9.97;;;31.30;59.90;;;;;;4952933;28;20551;-85
2022/05/20 12:11:30;;;;;;;10.87;8.43;;;31.50;63.50;;;;;;4962294;28;20474;-86
2022/05/20 12:14:00;;;;;;;10.27;9.47;;;31.90;63.30;;;;;;4932260;28;20448;-85
2022/05/20 12:16:27;;;;;;;12.03;9.53;;;31.80;61.30;;;;;;4932895;28;21944;-84
2022/05/20 12:24:39;;;;;;;10.47;9.57;;;32.40;58.00;;;;;;4945500;28;20500;-87
2022/05/20 12:27:11;;;;;;;11.30;10.40;;;32.10;58.40;;;;;;4948712;28;20555;-85
2022/05/20 12:29:40;;;;;;;10.97;9.97;;;31.20;60.10;;;;;;4945758;28;20461;-86
2022/05/20 12:32:24;;;;;;;11.40;9.57;;;31.30;60.90;;;;;;4942227;28;21044;-86
2022/05/20 12:35:05;;;;;;;10.13;9.13;;;31.60;60.70;;;;;;4936122;28;20476;-86
2022/05/20 12:37:43;;;;;;;12.47;9.40;;;31.50;64.80;;;;;;4946643;28;20869;-85
2022/05/20 12:40:24;;;;;;;9.83;8.93;;;31.70;63.40;;;;;;4947654;28;22497;-87
2022/05/20 12:42:58;;;;;;;10.97;9.23;;;31.80;63.60;;;;;;4936439;28;21291;-86
2022/05/20 12:45:26;;;;;;;10.60;9.20;;;31.90;60.20;;;;;;4942793;28;20565;-87
2022/05/20 12:47:54;;;;;;;9.63;8.67;;;31.90;61.10;;;;;;4941749;28;20454;-85
2022/05/20 12:50:23;;;;;;;10.17;8.97;;;32.80;57.00;;;;;;4940249;28;20868;-85
2022/05/20 12:52:49;;;;;;;11.37;9.50;;;;;;;;;;4942799;28;20463;-87
2022/05/20 12:55:30;;;;;;;11.40;10.37;;;32.90;59.00;;;;;;4940104;28;20547;-85
2022/05/20 12:57:58;;;;;;;10.30;9.40;;;32.40;59.70;;;;;;4945428;28;20441;-84
2022/05/20 13:00:26;;;;;;;13.93;10.30;;;32.50;60.10;;;;;;4937698;28;20470;-86
2022/05/20 13:02:55;;;;;;;15.40;10.07;;;32.40;60.20;;;;;;4942264;28;20508;-85
2022/05/20 13:05:21;;;;;;;10.77;9.90;;;;;;;;;;4945612;28;20519;-84
2022/05/20 13:07:48;;;;;;;10.53;9.73;;;33.00;56.70;;;;;;4941718;28;20528;-84
2022/05/20 13:10:28;;;;;;;10.10;9.27;;;33.00;57.20;;;;;;4948423;28;20513;-85
2022/05/20 13:12:58;;;;;;;10.50;9.40;;;33.00;59.10;;;;;;4948523;28;20439;-87
2022/05/20 13:15:24;;;;;;;10.80;10.07;;;;;;;;;;4949394;28;20429;-85
2022/05/20 13:18:08;;;;;;;10.70;9.70;;;33.10;57.10;;;;;;4934410;28;21422;-86
2022/05/20 13:20:36;;;;;;;11.23;10.37;;;33.60;56.40;;;;;;4948969;28;20997;-85
2022/05/20 13:23:07;;;;;;;16.20;11.07;;;33.50;55.30;;;;;;4940943;28;20956;-87
2022/05/20 13:25:33;;;;;;;12.37;11.10;;;33.70;56.80;;;;;;4947748;28;20437;-85
2022/05/20 13:27:59;;;;;;;10.80;9.90;;;;;;;;;;4949351;28;20556;-87
2022/05/20 13:30:30;;;;;;;15.10;11.40;;;33.80;57.20;;;;;;4944179;28;20984;-90
2022/05/20 13:33:07;;;;;;;15.90;11.37;;;33.30;59.20;;;;;;4944999;28;20442;-90
2022/05/20 13:35:46;;;;;;;13.10;11.60;;;33.20;58.60;;;;;;4946770;28;21158;-89
2022/05/20 13:38:12;;;;;;;12.30;10.37;;;;;;;;;;4948857;28;20516;-88
2022/05/20 13:40:41;;;;;;;13.67;11.37;;;33.20;59.00;;;;;;4946198;28;20552;-88
2022/05/20 13:43:10;;;;;;;11.83;10.73;;;32.30;58.80;;;;;;4936134;28;20580;-88
2022/05/20 13:51:26;;;;;;;10.53;9.63;;;31.60;60.90;;;;;;4945682;28;20516;-89
2022/05/20 13:53:52;;;;;;;10.60;9.90;;;;;;;;;;4945814;28;21130;-89
2022/05/20 13:56:18;;;;;;;10.83;9.93;;;;;;;;;;4944359;28;20462;-89
2022/05/20 13:58:45;;;;;;;16.33;10.60;;;;;;;;;;4944427;28;20425;-87
2022/05/20 14:01:13;;;;;;;11.37;9.40;;;31.30;63.10;;;;;;4946090;28;20466;-88
2022/05/20 14:03:45;;;;;;;18.23;9.53;;;30.80;61.20;;;;;;4946187;28;20817;-87
2022/05/20 14:06:15;;;;;;;13.43;9.73;;;30.80;61.80;;;;;;4946800;28;20456;-88
2022/05/20 14:08:52;;;;;;;16.03;8.80;;;30.60;62.10;;;;;;4946690;28;20437;-88
2022/05/20 14:11:19;;;;;;;8.43;7.73;;;30.60;63.30;;;;;;4946243;28;20547;-87
2022/05/20 14:13:45;;;;;;;10.37;8.47;;;30.70;64.40;;;;;;4940851;28;20445;-88
2022/05/20 14:16:20;;;;;;;15.33;8.07;;;30.70;65.10;;;;;;4935376;28;20443;-89
2022/05/20 14:18:56;;;;;;;12.10;8.80;;;30.40;65.40;;;;;;4945768;28;20463;-88
2022/05/20 14:21:30;;;;;;;9.10;8.20;;;29.90;67.00;;;;;;4945524;28;20464;-88
2022/05/20 14:24:19;;;;;;;8.63;7.50;;;29.30;68.20;;;;;;4945307;28;20525;-89